Time;durP1;ratioP1;P1;durP2;ratioP2;P2;SDS_P1;SDS_P2;PMS_P1;PMS_P2;Temp;Humidity;BMP_temperature;BMP_pressure;BME280_temperature;BME280_humidity;BME280_pressure;Samples;Min_cycle;Max_cycle;Signal;HPM_P1;HPM_P2
2021/12/25 00:00:29;;;;;;;1.30;1.20;;;12.40;81.10;12.60;95264.00;;;;5073963;28;20582;-86
2021/12/25 00:02:56;;;;;;;5.83;1.70;;;12.40;81.10;12.60;95269.00;;;;5073193;28;20286;-86
2021/12/25 00:05:25;;;;;;;4.20;1.50;;;12.40;81.00;12.60;95276.00;;;;5067702;28;20306;-88
2021/12/25 00:07:52;;;;;;;20.63;2.47;;;12.40;81.10;12.60;95281.00;;;;5068241;28;20196;-87
2021/12/25 00:10:19;;;;;;;2.07;1.30;;;12.40;81.10;12.60;95289.00;;;;5073311;28;20206;-87
2021/12/25 00:12:47;;;;;;;3.53;1.47;;;12.40;81.10;12.60;95283.00;;;;5073500;28;20192;-87
2021/12/25 00:15:14;;;;;;;1.70;1.00;;;12.40;81.10;12.60;95269.00;;;;5053973;28;20217;-87
2021/12/25 00:17:42;;;;;;;1.50;1.40;;;12.40;81.10;12.70;95266.00;;;;5065902;28;20579;-87
2021/12/25 00:20:10;;;;;;;4.83;1.30;;;12.40;81.10;12.70;95274.00;;;;5072318;28;20673;-88
2021/12/25 00:22:39;;;;;;;2.57;1.33;;;12.40;81.00;12.70;95268.00;;;;5063940;28;20220;-87
2021/12/25 00:25:07;;;;;;;3.43;1.23;;;12.40;81.00;12.70;95276.00;;;;5052962;28;20224;-87
2021/12/25 00:27:53;;;;;;;1.67;1.20;;;12.40;81.70;12.70;95270.00;;;;5061918;28;20741;-87
2021/12/25 00:30:27;;;;;;;7.80;1.73;;;12.40;81.00;12.70;95285.00;;;;5074518;28;20204;-87
2021/12/25 00:33:00;;;;;;;2.23;1.30;;;12.50;81.70;12.70;95274.00;;;;5074586;28;20275;-87
2021/12/25 00:35:27;;;;;;;1.47;1.10;;;12.50;80.90;12.70;95269.00;;;;5074146;28;20228;-87
2021/12/25 00:37:56;;;;;;;1.83;1.40;;;12.50;81.00;12.70;95273.00;;;;5054593;28;20277;-87
2021/12/25 00:40:25;;;;;;;2.10;1.33;;;12.50;80.80;12.70;95269.00;;;;5054447;28;20228;-87
2021/12/25 00:42:52;;;;;;;2.63;1.70;;;12.50;80.80;12.70;95262.00;;;;5061937;28;20192;-88
2021/12/25 00:45:19;;;;;;;1.73;1.33;;;12.50;80.80;12.70;95246.00;;;;5074378;28;20585;-87
2021/12/25 00:47:46;;;;;;;3.37;1.40;;;12.50;80.80;12.70;95246.00;;;;5074948;28;20602;-88
2021/12/25 00:50:14;;;;;;;2.33;1.27;;;12.50;80.80;12.80;95241.00;;;;5075224;28;20196;-87
2021/12/25 00:52:41;;;;;;;1.40;1.20;;;12.50;80.70;12.70;95255.00;;;;5074792;28;20192;-88
2021/12/25 00:55:11;;;;;;;1.60;1.07;;;12.50;80.80;12.70;95268.00;;;;5074707;28;20223;-87
2021/12/25 00:57:39;;;;;;;2.30;1.47;;;12.50;80.80;12.70;95268.00;;;;5074685;28;20195;-86
2021/12/25 01:00:12;;;;;;;2.07;1.20;;;12.50;80.80;12.70;95267.00;;;;5074598;28;20191;-86
2021/12/25 01:02:43;;;;;;;2.60;1.40;;;12.50;80.90;12.70;95272.00;;;;5074846;28;20208;-87
2021/12/25 01:05:13;;;;;;;3.13;0.90;;;12.50;81.00;12.80;95280.00;;;;5073473;28;20224;-86
2021/12/25 01:07:41;;;;;;;4.97;1.00;;;12.40;80.80;12.70;95277.00;;;;5064053;28;20192;-87
2021/12/25 01:10:16;;;;;;;0.93;0.93;;;12.50;80.80;12.70;95274.00;;;;5054606;28;20207;-87
2021/12/25 01:12:55;;;;;;;2.20;1.10;;;12.50;80.70;12.70;95273.00;;;;5071491;28;20576;-87
2021/12/25 01:15:33;;;;;;;6.30;1.47;;;12.40;80.70;12.70;95276.00;;;;5073816;28;20219;-87
2021/12/25 01:18:27;;;;;;;2.80;1.30;;;12.40;80.70;12.70;95270.00;;;;5074083;28;20266;-86
2021/12/25 01:21:13;;;;;;;1.83;1.00;;;12.40;81.50;12.70;95263.00;;;;5073949;28;20207;-86
2021/12/25 01:27:15;;;;;;;5.90;1.40;;;12.40;80.90;12.70;95262.00;;;;5136733;27;20584;-85
2021/12/25 01:29:53;;;;;;;2.57;1.27;;;12.40;80.90;12.60;95270.00;;;;5109722;28;20222;-86
2021/12/25 01:32:51;;;;;;;2.37;1.50;;;12.40;80.80;12.60;95276.00;;;;5096624;28;20196;-85
2021/12/25 01:38:25;;;;;;;2.10;1.90;;;12.40;80.90;12.60;95281.00;;;;5061353;28;20190;-85
2021/12/25 01:41:12;;;;;;;7.23;1.87;;;12.40;81.00;12.60;95278.00;;;;5098571;28;20214;-85
2021/12/25 01:49:14;;;;;;;1.67;1.57;;;12.30;81.00;12.50;95270.00;;;;5091760;28;20299;-85
2021/12/25 01:51:48;;;;;;;4.57;1.70;;;12.30;81.20;12.50;95274.00;;;;5088150;28;20230;-85
2021/12/25 01:54:23;;;;;;;1.30;1.20;;;12.30;81.30;12.50;95277.00;;;;5098354;28;20256;-85
2021/12/25 01:56:54;;;;;;;1.93;1.10;;;12.30;81.30;12.50;95261.00;;;;5100259;28;20194;-85
2021/12/25 01:59:22;;;;;;;2.30;1.20;;;12.30;81.50;12.50;95270.00;;;;5100441;28;20658;-85
2021/12/25 02:01:52;;;;;;;1.03;0.97;;;12.30;81.50;12.50;95262.00;;;;5100206;28;20203;-85
2021/12/25 02:04:23;;;;;;;1.10;1.00;;;12.30;81.40;12.50;95260.00;;;;5106296;28;20625;-85
2021/12/25 02:06:53;;;;;;;1.83;1.17;;;12.30;81.50;12.50;95254.00;;;;5097685;28;20300;-86
2021/12/25 02:09:22;;;;;;;1.53;1.30;;;12.30;81.70;12.50;95251.00;;;;5093648;28;20225;-86
2021/12/25 02:11:57;;;;;;;8.33;1.27;;;12.30;81.80;12.50;95245.00;;;;5106971;28;20187;-85
2021/12/25 02:14:29;;;;;;;4.63;1.20;;;12.30;81.70;12.50;95250.00;;;;5109894;28;20219;-85
2021/12/25 02:17:02;;;;;;;1.10;1.00;;;12.30;81.70;12.50;95246.00;;;;5088092;28;20199;-85
2021/12/25 02:19:42;;;;;;;2.50;1.50;;;12.30;81.70;12.50;95250.00;;;;5089174;28;20212;-85
2021/12/25 02:22:13;;;;;;;7.77;1.50;;;12.30;81.90;12.50;95249.00;;;;5088491;28;20679;-85
2021/12/25 02:24:49;;;;;;;1.40;1.30;;;12.30;81.90;12.50;95247.00;;;;5094296;28;20298;-85
2021/12/25 02:27:20;;;;;;;6.03;1.60;;;12.30;81.80;12.50;95234.00;;;;5104083;28;20187;-85
2021/12/25 02:29:53;;;;;;;6.10;1.60;;;12.30;81.90;12.50;95250.00;;;;5088915;28;20242;-85
2021/12/25 02:32:28;;;;;;;2.37;1.33;;;12.30;81.90;12.50;95251.00;;;;5096693;28;20648;-86
2021/12/25 02:34:59;;;;;;;1.60;1.50;;;12.20;82.00;12.50;95250.00;;;;5103802;28;20548;-85
2021/12/25 02:37:28;;;;;;;1.33;1.23;;;12.20;82.00;12.50;95247.00;;;;5091297;28;20249;-85
2021/12/25 02:39:59;;;;;;;4.33;1.60;;;12.20;82.00;12.50;95246.00;;;;5086031;28;20247;-84
2021/12/25 02:42:27;;;;;;;1.43;1.10;;;12.20;82.00;12.50;95250.00;;;;5089468;28;20199;-85
2021/12/25 02:44:54;;;;;;;1.53;1.30;;;12.20;82.60;12.50;95243.00;;;;5094259;28;20219;-85
2021/12/25 02:47:25;;;;;;;1.23;1.20;;;12.20;82.00;12.40;95244.00;;;;5089982;28;20631;-84
2021/12/25 02:49:58;;;;;;;2.57;1.40;;;12.20;82.00;12.40;95247.00;;;;5075579;28;20208;-85
2021/12/25 02:52:27;;;;;;;7.20;1.63;;;12.20;82.10;12.40;95242.00;;;;5080115;28;20222;-85
2021/12/25 02:54:54;;;;;;;1.57;1.07;;;12.20;82.10;12.40;95242.00;;;;5074098;28;20231;-86
2021/12/25 02:57:28;;;;;;;3.53;2.03;;;12.20;82.10;12.40;95234.00;;;;5088919;28;20311;-85
2021/12/25 02:59:58;;;;;;;2.80;1.67;;;12.20;82.20;12.40;95232.00;;;;5077356;28;20229;-86
2021/12/25 03:02:30;;;;;;;1.23;1.13;;;12.20;82.20;12.40;95213.00;;;;5085437;28;20285;-86
2021/12/25 03:04:57;;;;;;;3.20;1.80;;;12.20;82.20;12.40;95205.00;;;;5078609;28;20250;-86
2021/12/25 03:07:27;;;;;;;5.17;1.43;;;12.20;82.30;12.40;95212.00;;;;5075743;28;20224;-86
2021/12/25 03:10:13;;;;;;;1.93;1.30;;;12.20;82.30;12.40;95217.00;;;;5074834;28;20713;-86
2021/12/25 03:12:49;;;;;;;2.63;1.50;;;12.20;82.40;12.40;95231.00;;;;5075078;28;20196;-86
2021/12/25 03:15:27;;;;;;;2.00;1.20;;;12.20;82.50;12.40;95230.00;;;;5073858;28;20195;-86
2021/12/25 03:17:56;;;;;;;1.50;1.40;;;12.20;82.60;12.40;95223.00;;;;5087164;28;20712;-86
2021/12/25 03:20:29;;;;;;;3.47;1.30;;;12.10;82.50;12.40;95240.00;;;;5083660;28;20243;-86
2021/12/25 03:22:58;;;;;;;1.57;1.47;;;12.20;82.60;12.40;95243.00;;;;5093027;28;20699;-86
2021/12/25 03:25:28;;;;;;;1.33;1.27;;;12.20;82.50;12.40;95241.00;;;;5091225;28;20227;-86
2021/12/25 03:28:12;;;;;;;1.67;1.30;;;12.10;82.60;12.40;95240.00;;;;5093440;28;20219;-86
2021/12/25 03:30:41;;;;;;;1.40;1.30;;;12.10;82.50;12.40;95228.00;;;;5093570;28;20215;-85
2021/12/25 03:33:16;;;;;;;6.33;1.50;;;12.10;82.40;12.30;95220.00;;;;5092535;28;20196;-86
2021/12/25 03:35:46;;;;;;;10.47;2.20;;;12.10;82.40;12.40;95224.00;;;;5092190;28;20233;-86
2021/12/25 03:38:19;;;;;;;2.13;1.80;;;12.10;82.40;12.40;95220.00;;;;5077180;28;20196;-86
2021/12/25 03:41:02;;;;;;;1.60;1.50;;;12.10;82.30;12.40;95223.00;;;;5073582;28;20708;-86
2021/12/25 03:43:33;;;;;;;14.93;2.37;;;12.10;82.30;12.40;95220.00;;;;5090273;28;20245;-86
2021/12/25 03:46:09;;;;;;;2.33;1.50;;;12.10;82.40;12.30;95206.00;;;;5093262;28;20219;-85
2021/12/25 03:49:00;;;;;;;1.80;1.50;;;12.10;82.40;12.30;95217.00;;;;5090923;28;20199;-86
2021/12/25 03:59:59;;;;;;;1.43;1.33;;;12.10;82.30;12.30;95222.00;;;;5092834;28;20764;-85
2021/12/25 04:02:33;;;;;;;3.90;1.90;;;12.00;82.40;12.30;95209.00;;;;5086804;28;20604;-85
2021/12/25 04:05:03;;;;;;;9.80;1.83;;;12.10;82.40;12.30;95211.00;;;;5094439;22;20198;-86
2021/12/25 04:10:17;;;;;;;15.00;2.10;;;12.00;82.50;12.30;95203.00;;;;5065949;28;20274;-89
2021/12/25 04:12:45;;;;;;;1.97;1.33;;;12.00;82.40;12.30;95202.00;;;;5065573;28;20207;-89
2021/12/25 04:15:13;;;;;;;31.17;3.13;;;12.00;82.40;12.30;95202.00;;;;5058694;28;20212;-88
2021/12/25 04:17:40;;;;;;;23.10;3.50;;;12.00;82.40;12.30;95210.00;;;;5071242;28;20682;-89
2021/12/25 04:20:09;;;;;;;6.60;1.70;;;12.10;82.50;12.30;95194.00;;;;5052571;28;20681;-87
2021/12/25 04:22:43;;;;;;;1.70;1.50;;;12.00;82.50;12.30;95198.00;;;;5065332;28;20203;-88
2021/12/25 04:25:11;;;;;;;6.50;1.77;;;12.00;83.20;12.30;95203.00;;;;5063753;28;20223;-88
2021/12/25 04:27:38;;;;;;;13.67;2.80;;;12.00;82.60;12.40;95198.00;;;;5071247;28;20192;-87
2021/12/25 04:30:23;;;;;;;24.17;2.27;;;12.00;82.60;12.40;95202.00;;;;5069314;28;20192;-89
2021/12/25 04:49:48;;;;;;;6.23;1.50;;;12.00;82.60;12.30;95172.00;;;;5066965;28;20200;-88
2021/12/25 05:03:31;;;;;;;1.50;1.40;;;12.00;82.70;12.30;95164.00;;;;5069164;28;20285;-88
2021/12/25 05:05:59;;;;;;;2.03;1.50;;;12.00;82.70;12.30;95173.00;;;;5067552;28;20224;-89
2021/12/25 05:08:27;;;;;;;16.00;2.40;;;12.00;83.60;12.30;95180.00;;;;5071813;28;20425;-88
2021/12/25 05:10:54;;;;;;;4.23;1.90;;;12.00;82.70;12.30;95192.00;;;;5060978;28;20199;-88
2021/12/25 05:13:21;;;;;;;6.00;1.90;;;12.00;82.60;12.30;95177.00;;;;5071138;28;20766;-89
2021/12/25 05:15:51;;;;;;;6.80;1.90;;;12.00;82.50;12.30;95163.00;;;;5069989;28;20706;-88
2021/12/25 05:18:20;;;;;;;5.87;1.80;;;12.00;82.40;12.30;95166.00;;;;5069457;28;20211;-88
2021/12/25 05:20:47;;;;;;;4.93;1.70;;;12.00;82.40;12.20;95174.00;;;;5069825;28;20199;-87
2021/12/25 05:23:14;;;;;;;4.13;1.70;;;12.00;82.40;12.20;95175.00;;;;5070444;28;20669;-88
2021/12/25 05:25:41;;;;;;;3.27;1.77;;;11.90;82.50;12.20;95177.00;;;;5070561;28;20224;-89
2021/12/25 05:28:08;;;;;;;1.40;1.30;;;11.90;83.30;12.20;95178.00;;;;5071048;28;20541;-87
2021/12/25 05:30:36;;;;;;;1.50;1.40;;;11.90;82.70;12.20;95175.00;;;;5070808;28;20192;-89
2021/12/25 05:33:03;;;;;;;2.23;1.53;;;11.90;82.90;12.20;95177.00;;;;5055692;28;20206;-88
2021/12/25 05:35:31;;;;;;;9.27;2.20;;;11.90;83.00;12.20;95174.00;;;;5068105;28;20598;-88
2021/12/25 05:37:59;;;;;;;10.40;2.30;;;11.90;83.00;12.20;95161.00;;;;5078602;28;20207;-89
2021/12/25 05:40:27;;;;;;;6.23;1.83;;;11.90;82.90;12.20;95166.00;;;;5070550;28;20242;-87
2021/12/25 05:42:54;;;;;;;11.07;2.00;;;11.90;82.80;12.20;95165.00;;;;5071209;28;20581;-89
2021/12/25 05:45:22;;;;;;;2.00;1.77;;;11.90;82.70;12.20;95155.00;;;;5069311;28;20614;-89
2021/12/25 05:47:49;;;;;;;1.90;1.73;;;12.70;83.20;12.10;95152.00;;;;5066347;28;20227;-89
2021/12/25 05:50:16;;;;;;;2.03;1.47;;;11.90;82.70;12.10;95153.00;;;;5050889;28;20197;-89
2021/12/25 05:52:44;;;;;;;4.57;1.57;;;11.90;82.70;12.10;95158.00;;;;5057273;28;20208;-89
2021/12/25 05:55:11;;;;;;;2.60;1.70;;;11.80;82.70;12.10;95158.00;;;;5049941;28;20220;-89
2021/12/25 05:57:39;;;;;;;3.43;1.70;;;11.80;82.70;12.10;95152.00;;;;5058692;28;20200;-89
2021/12/25 06:00:09;;;;;;;17.73;2.47;;;11.80;82.80;12.10;95153.00;;;;5051760;28;20195;-89
2021/12/25 06:02:36;;;;;;;18.37;2.63;;;11.80;82.70;12.10;95153.00;;;;5057069;28;20205;-89
2021/12/25 06:05:04;;;;;;;11.53;2.37;;;11.80;82.50;12.10;95151.00;;;;5070121;28;20835;-90
2021/12/25 06:07:32;;;;;;;9.53;2.40;;;11.80;82.60;12.10;95156.00;;;;5065687;28;20311;-90
2021/12/25 06:10:03;;;;;;;7.30;2.20;;;11.80;82.60;12.10;95156.00;;;;5058535;28;20192;-89
2021/12/25 06:12:30;;;;;;;9.27;2.30;;;11.80;82.50;12.00;95151.00;;;;5068009;28;20196;-89
2021/12/25 06:15:00;;;;;;;4.70;2.07;;;11.80;82.40;12.00;95145.00;;;;5075164;28;20234;-89
2021/12/25 06:17:29;;;;;;;3.93;2.13;;;11.70;82.40;12.00;95160.00;;;;5074075;28;20635;-87
2021/12/25 06:19:56;;;;;;;5.00;2.00;;;11.70;82.40;12.00;95148.00;;;;5073932;28;20196;-89
2021/12/25 06:22:24;;;;;;;23.73;3.43;;;11.70;82.50;12.00;95148.00;;;;5063001;28;20202;-89
2021/12/25 06:24:51;;;;;;;2.53;1.90;;;11.70;82.60;12.00;95157.00;;;;5070278;28;20287;-88
2021/12/25 06:27:20;;;;;;;3.10;2.50;;;11.70;82.60;12.00;95153.00;;;;5073160;28;20615;-89
2021/12/25 06:29:48;;;;;;;24.23;2.87;;;11.70;82.60;12.00;95154.00;;;;5071948;28;20204;-87
2021/12/25 06:32:16;;;;;;;2.00;1.80;;;11.70;82.80;12.00;95152.00;;;;5073445;28;20192;-89
2021/12/25 06:34:45;;;;;;;3.60;2.00;;;11.70;82.90;12.00;95147.00;;;;5073408;28;20242;-86
2021/12/25 06:37:12;;;;;;;2.27;2.07;;;11.70;83.10;12.00;95147.00;;;;5072758;28;20206;-89
2021/12/25 06:39:41;;;;;;;3.97;1.77;;;11.70;83.10;12.00;95146.00;;;;5074386;28;20280;-89
2021/12/25 06:42:09;;;;;;;2.07;1.90;;;12.10;83.40;12.00;95140.00;;;;5073062;28;20232;-87
2021/12/25 06:44:38;;;;;;;3.13;2.30;;;11.70;83.30;12.10;95147.00;;;;5073586;28;20208;-89
2021/12/25 06:47:06;;;;;;;6.07;2.60;;;11.80;83.40;12.10;95149.00;;;;5072765;28;20234;-89
2021/12/25 06:49:33;;;;;;;10.23;3.10;;;11.80;83.40;12.10;95144.00;;;;5053872;28;20659;-89
2021/12/25 06:52:00;;;;;;;1.90;1.77;;;11.80;83.20;12.10;95153.00;;;;5070681;28;20204;-89
2021/12/25 06:54:28;;;;;;;1.90;1.80;;;11.80;83.00;12.10;95147.00;;;;5073493;28;20203;-89
2021/12/25 06:56:55;;;;;;;2.07;1.97;;;11.80;83.00;12.10;95165.00;;;;5073130;28;20216;-89
2021/12/25 06:59:22;;;;;;;2.33;2.13;;;11.80;83.00;12.10;95184.00;;;;5073739;28;20196;-89
2021/12/25 07:01:52;;;;;;;2.63;2.20;;;11.80;83.00;12.00;95180.00;;;;5072380;28;20736;-89
2021/12/25 07:04:19;;;;;;;3.20;2.10;;;11.80;83.00;12.00;95188.00;;;;5072749;28;20615;-89
2021/12/25 07:06:47;;;;;;;5.00;2.03;;;11.80;83.00;12.00;95179.00;;;;5072922;28;20231;-89
2021/12/25 07:09:14;;;;;;;5.23;1.90;;;11.80;83.00;12.00;95182.00;;;;5072793;28;20192;-89
2021/12/25 07:11:42;;;;;;;5.70;2.47;;;11.80;83.10;12.00;95184.00;;;;5073104;28;20758;-89
2021/12/25 07:14:11;;;;;;;3.37;1.87;;;11.80;83.00;12.00;95177.00;;;;5056607;28;20564;-89
2021/12/25 07:16:40;;;;;;;3.50;2.40;;;11.80;83.00;12.10;95185.00;;;;5065885;28;20283;-89
2021/12/25 07:19:12;;;;;;;4.60;4.03;;;11.80;83.10;12.00;95173.00;;;;5069820;28;20188;-88
2021/12/25 07:21:39;;;;;;;19.27;5.10;;;11.80;83.00;12.10;95177.00;;;;5064841;28;20253;-88
2021/12/25 07:24:08;;;;;;;4.47;4.10;;;11.80;83.10;12.10;95177.00;;;;5057363;28;20203;-88
2021/12/25 07:26:36;;;;;;;19.67;4.57;;;11.80;83.10;12.10;95179.00;;;;5064843;28;20220;-89
2021/12/25 07:29:03;;;;;;;12.50;3.53;;;11.90;83.20;12.20;95177.00;;;;5058600;28;20201;-89
2021/12/25 07:31:30;;;;;;;4.20;2.73;;;11.90;83.10;12.20;95185.00;;;;5063152;28;20203;-90
2021/12/25 07:33:57;;;;;;;11.90;3.73;;;11.90;83.00;12.20;95183.00;;;;5067083;28;20696;-90
2021/12/25 07:36:25;;;;;;;5.90;2.97;;;11.90;83.20;12.20;95176.00;;;;5067125;28;20304;-90
2021/12/25 07:38:54;;;;;;;10.53;2.87;;;12.10;83.30;12.30;95174.00;;;;5058279;28;20192;-91
2021/12/25 07:41:21;;;;;;;15.50;3.00;;;11.90;83.10;12.30;95162.00;;;;5073101;28;20542;-92
2021/12/25 07:43:49;;;;;;;31.07;4.13;;;11.90;83.10;12.30;95161.00;;;;5072863;28;20190;-90
2021/12/25 07:46:16;;;;;;;2.67;2.00;;;11.90;83.00;12.40;95161.00;;;;5064643;28;20250;-89
2021/12/25 07:48:44;;;;;;;2.03;1.90;;;11.90;82.90;12.40;95163.00;;;;5073103;28;20195;-90
2021/12/25 07:51:11;;;;;;;17.90;2.57;;;11.90;82.90;12.40;95156.00;;;;5064488;28;20272;-89
2021/12/25 07:53:41;;;;;;;13.73;2.50;;;12.00;83.50;12.40;95162.00;;;;5065367;28;20192;-90
2021/12/25 07:56:08;;;;;;;10.20;2.50;;;12.30;83.10;12.40;95153.00;;;;5072073;28;20223;-87
2021/12/25 07:58:35;;;;;;;22.10;3.13;;;11.90;82.80;12.40;95159.00;;;;5071148;28;20192;-90
2021/12/25 08:01:02;;;;;;;21.17;3.53;;;11.90;83.00;12.40;95162.00;;;;5068338;28;20189;-88
2021/12/25 08:03:29;;;;;;;8.23;2.73;;;12.00;83.80;12.50;95160.00;;;;5060907;28;20196;-89
2021/12/25 08:05:57;;;;;;;14.00;2.80;;;12.00;83.10;12.50;95163.00;;;;5055858;28;20303;-89
2021/12/25 08:08:24;;;;;;;3.40;2.13;;;12.00;83.10;12.50;95170.00;;;;5072415;28;20220;-87
2021/12/25 08:10:52;;;;;;;2.40;2.20;;;12.00;83.10;12.50;95164.00;;;;5057065;28;20196;-90
2021/12/25 08:13:19;;;;;;;5.60;2.83;;;12.00;83.00;12.50;95175.00;;;;5069043;28;20192;-90
2021/12/25 08:15:46;;;;;;;3.00;2.10;;;12.00;83.00;12.50;95174.00;;;;5070216;28;20222;-89
2021/12/25 08:18:14;;;;;;;4.73;2.40;;;12.10;82.90;12.50;95170.00;;;;5071787;28;20658;-89
2021/12/25 08:20:41;;;;;;;2.53;2.27;;;12.00;82.80;12.50;95177.00;;;;5071956;28;20200;-90
2021/12/25 08:23:08;;;;;;;2.20;2.00;;;12.00;82.70;12.50;95160.00;;;;5069577;28;20191;-88
2021/12/25 08:25:37;;;;;;;16.90;3.17;;;12.00;82.70;12.50;95177.00;;;;5071570;28;20295;-90
2021/12/25 08:28:06;;;;;;;4.67;2.20;;;12.00;82.70;12.50;95170.00;;;;5068133;28;20774;-89
2021/12/25 08:30:35;;;;;;;5.57;2.10;;;12.00;82.60;12.50;95166.00;;;;5054312;28;20197;-89
2021/12/25 08:33:02;;;;;;;11.80;3.10;;;12.10;82.70;12.50;95163.00;;;;5066208;28;20662;-89
2021/12/25 08:35:31;;;;;;;2.40;2.20;;;12.00;82.70;12.50;95168.00;;;;5068671;28;20220;-90
2021/12/25 08:37:58;;;;;;;2.83;2.60;;;12.10;82.90;12.50;95175.00;;;;5065282;28;20280;-90
2021/12/25 08:40:28;;;;;;;5.17;2.53;;;12.10;83.00;12.50;95168.00;;;;5072089;28;20279;-88
2021/12/25 08:43:00;;;;;;;4.10;2.20;;;12.10;83.00;12.60;95171.00;;;;5067050;28;20194;-90
2021/12/25 08:45:41;;;;;;;16.03;3.30;;;12.10;82.90;12.60;95180.00;;;;5069522;28;20578;-90
2021/12/25 08:48:13;;;;;;;4.60;1.97;;;12.10;82.80;12.60;95176.00;;;;5069911;28;20253;-89
2021/12/25 08:50:44;;;;;;;7.93;2.50;;;12.20;82.70;12.60;95182.00;;;;5071699;28;20196;-90
2021/12/25 08:53:11;;;;;;;2.30;2.00;;;12.00;82.60;12.60;95176.00;;;;5070923;28;20281;-90
2021/12/25 08:55:38;;;;;;;4.20;2.30;;;12.10;82.70;12.60;95169.00;;;;5071558;28;20701;-89
2021/12/25 08:58:05;;;;;;;3.10;2.37;;;12.10;82.60;12.60;95179.00;;;;5070166;28;20196;-90
2021/12/25 09:00:34;;;;;;;4.67;2.73;;;12.10;82.70;12.60;95169.00;;;;5071015;28;20192;-89
2021/12/25 09:03:02;;;;;;;4.80;2.50;;;12.10;82.80;12.60;95168.00;;;;5071023;28;20211;-89
2021/12/25 09:05:29;;;;;;;4.13;2.20;;;12.10;82.90;12.60;95178.00;;;;5067145;28;20728;-89
2021/12/25 09:07:56;;;;;;;6.37;2.43;;;12.10;82.90;12.60;95166.00;;;;5051439;28;20255;-89
2021/12/25 09:10:23;;;;;;;2.70;2.00;;;12.10;82.90;12.60;95162.00;;;;5051789;28;20203;-90
2021/12/25 09:12:50;;;;;;;22.27;3.30;;;12.20;83.00;12.60;95168.00;;;;5065009;28;20192;-90
2021/12/25 09:15:18;;;;;;;8.40;2.20;;;12.10;82.70;12.60;95166.00;;;;5066758;28;20250;-89
2021/12/25 09:17:47;;;;;;;2.20;2.00;;;12.10;82.80;12.60;95163.00;;;;5066672;28;20192;-90
2021/12/25 09:20:18;;;;;;;11.37;2.17;;;12.10;82.90;12.60;95179.00;;;;5067891;28;20193;-89
2021/12/25 09:22:46;;;;;;;1.80;1.70;;;12.10;83.00;12.60;95176.00;;;;5070558;28;20569;-89
2021/12/25 09:25:14;;;;;;;7.20;2.70;;;12.10;83.00;12.70;95174.00;;;;5060971;28;20216;-89
2021/12/25 09:27:42;;;;;;;2.17;1.97;;;12.20;83.20;12.70;95169.00;;;;5069026;28;21013;-89
2021/12/25 09:30:11;;;;;;;2.83;2.03;;;12.20;83.30;12.70;95159.00;;;;5062606;28;20200;-89
2021/12/25 09:32:39;;;;;;;2.40;2.20;;;12.20;83.40;12.80;95175.00;;;;5074471;28;20222;-89
2021/12/25 09:35:09;;;;;;;7.93;2.50;;;12.30;83.80;12.80;95172.00;;;;5072035;28;20283;-88
2021/12/25 09:37:36;;;;;;;4.10;2.37;;;12.30;83.90;12.80;95171.00;;;;5071219;28;20819;-89
2021/12/25 09:40:08;;;;;;;4.10;2.97;;;12.30;83.70;12.90;95167.00;;;;5058081;28;20198;-88
2021/12/25 09:42:35;;;;;;;22.07;4.03;;;12.40;83.70;12.90;95159.00;;;;5069832;28;20681;-88
2021/12/25 09:45:02;;;;;;;3.90;3.60;;;12.40;83.60;12.90;95157.00;;;;5069602;28;20646;-90
2021/12/25 09:47:30;;;;;;;5.27;4.77;;;12.40;83.50;13.00;95161.00;;;;5065273;28;20224;-89
2021/12/25 09:49:57;;;;;;;3.60;3.30;;;12.40;83.70;13.00;95165.00;;;;5074531;28;20204;-88
2021/12/25 09:52:25;;;;;;;3.30;3.00;;;12.40;83.80;13.10;95161.00;;;;5074680;28;20196;-89
2021/12/25 09:54:52;;;;;;;10.70;2.90;;;12.60;83.90;13.10;95164.00;;;;5059064;28;20655;-89
2021/12/25 09:57:19;;;;;;;3.20;3.00;;;12.60;84.00;13.20;95169.00;;;;5068278;28;20199;-89
2021/12/25 09:59:47;;;;;;;3.70;3.40;;;13.20;84.40;13.20;95156.00;;;;5087843;28;20199;-89
2021/12/25 10:02:17;;;;;;;4.97;3.73;;;12.60;84.10;13.30;95173.00;;;;5089030;28;20232;-87
2021/12/25 10:04:47;;;;;;;3.33;3.03;;;12.70;84.20;13.30;95171.00;;;;5080228;28;20600;-86
2021/12/25 10:07:20;;;;;;;4.43;3.20;;;12.70;84.00;13.40;95162.00;;;;5086052;22;20234;-85
2021/12/25 10:10:11;;;;;;;3.70;3.40;;;12.80;84.00;13.40;95163.00;;;;5076367;28;20249;-86
2021/12/25 10:12:43;;;;;;;6.20;3.83;;;12.80;83.70;13.40;95165.00;;;;5055516;28;20200;-86
2021/12/25 10:15:14;;;;;;;3.53;3.10;;;12.90;83.80;13.50;95159.00;;;;5061779;28;20630;-85
2021/12/25 10:17:48;;;;;;;4.07;3.50;;;12.90;83.50;13.50;95160.00;;;;5075979;28;20196;-85
2021/12/25 10:20:18;;;;;;;5.33;3.50;;;12.90;83.20;13.50;95165.00;;;;5082968;28;20187;-85
2021/12/25 10:23:02;;;;;;;4.03;2.83;;;13.00;83.30;13.60;95174.00;;;;5075202;28;20203;-85
2021/12/25 10:25:38;;;;;;;2.90;2.70;;;13.00;84.00;13.60;95166.00;;;;5074906;28;20755;-85
2021/12/25 10:28:09;;;;;;;4.13;2.70;;;13.00;83.50;13.60;95167.00;;;;5075378;28;20230;-85
2021/12/25 10:30:50;;;;;;;2.97;2.77;;;13.10;83.50;13.70;95169.00;;;;5076012;28;20192;-86
2021/12/25 10:33:30;;;;;;;3.40;3.00;;;13.10;83.30;13.70;95170.00;;;;5075379;28;20234;-85
2021/12/25 10:36:02;;;;;;;12.83;3.30;;;13.20;83.20;13.70;95166.00;;;;5075129;28;20217;-86
2021/12/25 10:38:30;;;;;;;22.20;3.50;;;13.10;82.90;13.70;95169.00;;;;5074046;28;20188;-85
2021/12/25 10:41:22;;;;;;;6.73;3.10;;;13.20;82.90;13.70;95169.00;;;;5072807;28;20223;-85
2021/12/25 10:43:53;;;;;;;2.97;2.73;;;13.20;82.30;13.70;95178.00;;;;5073167;28;20292;-85
2021/12/25 10:46:21;;;;;;;6.37;2.60;;;13.10;82.40;13.60;95170.00;;;;5072983;28;20211;-86
2021/12/25 10:48:48;;;;;;;2.53;2.33;;;13.20;82.50;13.60;95173.00;;;;5072882;28;20284;-84
2021/12/25 10:51:29;;;;;;;18.53;3.33;;;13.20;82.60;13.60;95176.00;;;;5076270;28;20185;-86
2021/12/25 10:53:57;;;;;;;3.20;2.43;;;13.20;82.50;13.60;95181.00;;;;5055362;28;20567;-86
2021/12/25 10:56:36;;;;;;;1.77;1.67;;;13.20;82.70;13.60;95181.00;;;;5084943;28;20707;-85
2021/12/25 10:59:08;;;;;;;1.60;1.50;;;13.20;82.80;13.70;95177.00;;;;5075464;28;20207;-86
2021/12/25 11:01:40;;;;;;;4.37;1.70;;;13.10;83.00;13.70;95181.00;;;;5070489;28;20199;-85
2021/12/25 11:04:27;;;;;;;2.03;1.63;;;13.20;83.20;13.70;95188.00;;;;5070652;28;20195;-85
2021/12/25 11:06:54;;;;;;;1.97;1.30;;;13.20;83.50;13.70;95189.00;;;;5074644;28;20210;-85
2021/12/25 11:09:21;;;;;;;3.53;1.53;;;13.20;83.10;13.70;95195.00;;;;5074247;28;20222;-85
2021/12/25 11:12:19;;;;;;;6.70;1.97;;;13.20;83.20;13.70;95195.00;;;;5074490;28;20192;-85
2021/12/25 11:14:47;;;;;;;4.80;1.50;;;13.30;83.20;13.80;95193.00;;;;5068065;28;20302;-85
2021/12/25 11:17:27;;;;;;;4.87;1.60;;;13.30;83.30;13.80;95198.00;;;;5073913;28;20192;-85
2021/12/25 11:20:02;;;;;;;1.50;1.40;;;13.30;83.20;13.90;95189.00;;;;5066882;28;20199;-87
2021/12/25 11:22:48;;;;;;;12.73;2.17;;;13.30;83.40;13.90;95195.00;;;;5074488;28;20191;-86
2021/12/25 11:25:17;;;;;;;2.87;1.70;;;13.40;84.00;13.90;95186.00;;;;5073706;28;20216;-86
2021/12/25 11:27:46;;;;;;;1.83;1.73;;;13.40;83.40;14.00;95185.00;;;;5073442;28;20583;-86
2021/12/25 11:30:14;;;;;;;3.43;1.73;;;13.50;83.50;14.00;95185.00;;;;5072269;28;20192;-87
2021/12/25 11:32:41;;;;;;;2.63;1.80;;;13.40;83.50;14.00;95183.00;;;;5069749;28;20200;-86
2021/12/25 11:35:10;;;;;;;3.77;1.80;;;13.50;83.50;14.10;95183.00;;;;5073491;28;20727;-85
2021/12/25 11:37:38;;;;;;;4.10;1.70;;;13.50;83.20;14.10;95180.00;;;;5073656;28;20660;-84
2021/12/25 11:40:08;;;;;;;3.17;1.90;;;13.50;83.20;14.10;95181.00;;;;5074337;28;20207;-86
2021/12/25 11:42:41;;;;;;;1.70;1.60;;;13.60;83.00;14.10;95177.00;;;;5074081;28;20192;-86
2021/12/25 11:45:17;;;;;;;2.17;1.97;;;13.50;82.90;14.10;95176.00;;;;5073726;28;20303;-87
2021/12/25 11:47:46;;;;;;;2.00;1.90;;;13.60;82.80;14.10;95177.00;;;;5062617;28;20212;-91
2021/12/25 11:50:17;;;;;;;3.00;2.40;;;13.60;82.70;14.10;95168.00;;;;5048437;28;20317;-87
2021/12/25 11:52:52;;;;;;;10.67;2.53;;;13.80;82.70;14.10;95169.00;;;;5050666;28;20204;-85
2021/12/25 11:58:20;;;;;;;2.23;2.03;;;13.60;82.70;14.20;95166.00;;;;5061404;28;20196;-86
2021/12/25 12:00:52;;;;;;;3.00;2.40;;;13.70;82.70;14.20;95164.00;;;;5059044;28;20199;-87